Time;durP1;ratioP1;P1;durP2;ratioP2;P2;SDS_P1;SDS_P2;PMS_P1;PMS_P2;Temp;Humidity;BMP_temperature;BMP_pressure;BME280_temperature;BME280_humidity;BME280_pressure;Samples;Min_cycle;Max_cycle;Signal;HPM_P1;HPM_P2
2023/04/12 00:01:48;;;;;;;11.13;2.60;;;7.40;99.90;;;;;;4976717;28;20034;-83
2023/04/12 00:04:17;;;;;;;9.73;2.70;;;7.50;99.90;;;;;;4957695;28;20125;-83
2023/04/12 00:06:47;;;;;;;10.25;2.50;;;7.40;99.90;;;;;;4976566;28;20054;-83
2023/04/12 00:09:16;;;;;;;11.47;2.70;;;7.40;99.90;;;;;;4958771;28;20066;-84
2023/04/12 00:11:41;;;;;;;8.67;2.50;;;7.40;99.90;;;;;;4958121;28;20055;-83
2023/04/12 00:14:08;;;;;;;12.03;3.00;;;7.80;99.90;;;;;;4959240;28;20376;-84
2023/04/12 00:16:35;;;;;;;11.35;2.90;;;7.40;99.90;;;;;;4959349;28;20047;-84
2023/04/12 00:19:02;;;;;;;9.10;2.72;;;7.40;99.90;;;;;;4957503;28;20043;-84
2023/04/12 00:21:28;;;;;;;9.65;2.70;;;7.40;99.90;;;;;;4958732;28;20574;-83
2023/04/12 00:23:54;;;;;;;12.25;2.97;;;7.40;99.90;;;;;;4958489;28;20078;-84
2023/04/12 00:26:24;;;;;;;11.70;2.77;;;8.90;99.90;;;;;;4978570;22;20127;-84
2023/04/12 00:28:50;;;;;;;11.37;2.80;;;7.40;99.90;;;;;;5009377;28;20050;-83
2023/04/12 00:31:15;;;;;;;12.83;2.80;;;7.40;99.90;;;;;;5015784;28;20835;-84
2023/04/12 00:33:41;;;;;;;12.03;2.93;;;8.10;99.90;;;;;;5016912;28;20049;-83
2023/04/12 00:36:07;;;;;;;12.00;2.90;;;7.50;99.90;;;;;;5016413;28;20128;-84
2023/04/12 00:38:32;;;;;;;13.13;3.00;;;7.50;99.90;;;;;;5033489;28;20132;-84
2023/04/12 00:40:59;;;;;;;9.47;2.73;;;7.50;99.90;;;;;;5016625;28;20136;-85
2023/04/12 00:43:26;;;;;;;11.20;3.13;;;7.60;99.90;;;;;;5017157;28;20041;-84
2023/04/12 00:45:53;;;;;;;10.30;2.92;;;7.60;99.90;;;;;;5014741;28;20053;-84
2023/04/12 00:48:19;;;;;;;10.38;2.80;;;8.80;99.90;;;;;;5016717;28;20481;-84
2023/04/12 00:50:45;;;;;;;11.90;3.10;;;6.90;99.90;;;;;;5019372;28;20051;-84
2023/04/12 00:53:23;;;;;;;11.88;3.30;;;9.20;99.90;;;;;;5041784;28;20122;-85
2023/04/12 00:55:50;;;;;;;11.15;2.70;;;7.60;99.90;;;;;;5019448;28;20037;-83
2023/04/12 00:58:25;;;;;;;12.57;3.10;;;8.80;99.90;;;;;;5024328;28;20041;-84
2023/04/12 01:00:53;;;;;;;13.75;3.15;;;7.50;99.90;;;;;;5024042;28;20140;-84
2023/04/12 01:03:21;;;;;;;11.40;3.00;;;9.00;99.90;;;;;;5016912;28;20061;-84
2023/04/12 01:06:28;;;;;;;10.07;2.83;;;7.80;99.90;;;;;;5020166;28;20081;-84
2023/04/12 01:09:10;;;;;;;12.38;3.25;;;7.80;99.90;;;;;;5016239;28;20097;-84
2023/04/12 01:11:38;;;;;;;12.38;3.30;;;7.80;99.90;;;;;;5034329;28;20092;-84
2023/04/12 01:14:10;;;;;;;10.93;3.47;;;7.90;99.90;;;;;;5033346;28;20072;-84
2023/04/12 01:16:46;;;;;;;12.85;3.40;;;7.90;99.90;;;;;;5016989;28;20052;-84
2023/04/12 01:19:32;;;;;;;9.63;3.00;;;7.90;99.90;;;;;;5033791;28;20034;-84
2023/04/12 01:22:15;;;;;;;13.82;3.50;;;8.90;99.90;;;;;;5015849;28;20033;-85
2023/04/12 01:25:02;;;;;;;12.18;3.30;;;7.90;99.90;;;;;;5034673;28;20053;-84
2023/04/12 01:27:58;;;;;;;14.30;3.38;;;7.90;99.90;;;;;;5033334;28;20387;-84
2023/04/12 01:30:27;;;;;;;11.70;3.33;;;7.90;99.90;;;;;;4988722;28;20049;-84
2023/04/12 01:32:54;;;;;;;10.73;3.15;;;7.90;99.90;;;;;;5033850;28;20077;-84
2023/04/12 01:35:23;;;;;;;12.55;3.53;;;7.90;99.90;;;;;;5015537;28;20084;-84
2023/04/12 01:37:49;;;;;;;12.73;3.28;;;7.90;99.90;;;;;;5016368;28;20482;-84
2023/04/12 01:40:16;;;;;;;11.82;3.53;;;7.90;99.90;;;;;;5015623;28;20049;-84
2023/04/12 01:43:01;;;;;;;13.98;3.88;;;9.10;99.90;;;;;;5015458;28;20067;-84
2023/04/12 01:45:27;;;;;;;11.85;3.17;;;7.80;99.90;;;;;;5034181;28;20042;-84
2023/04/12 01:48:07;;;;;;;12.95;3.25;;;7.80;99.90;;;;;;5016323;28;20111;-84
2023/04/12 01:50:44;;;;;;;11.43;3.08;;;8.50;99.90;;;;;;5032569;28;20091;-84
2023/04/12 01:53:19;;;;;;;12.25;3.70;;;7.90;99.90;;;;;;5033545;28;20041;-84
2023/04/12 01:55:47;;;;;;;11.52;3.47;;;7.80;99.90;;;;;;5015146;28;20485;-84
2023/04/12 01:58:19;;;;;;;11.50;3.65;;;7.90;99.90;;;;;;5015463;28;20037;-84
2023/04/12 02:00:46;;;;;;;14.10;3.33;;;7.80;99.90;;;;;;5010629;28;20033;-84
2023/04/12 02:03:12;;;;;;;10.05;3.20;;;7.80;99.90;;;;;;5012744;28;20038;-84
2023/04/12 02:05:38;;;;;;;11.23;3.72;;;7.80;99.90;;;;;;5013548;28;20041;-84
2023/04/12 02:08:04;;;;;;;9.93;3.53;;;7.80;99.90;;;;;;5013500;28;20088;-84
2023/04/12 02:10:31;;;;;;;14.40;3.95;;;7.80;99.90;;;;;;5013051;28;20141;-84
2023/04/12 02:13:00;;;;;;;11.05;3.33;;;8.60;99.90;;;;;;4995797;28;20393;-84
2023/04/12 02:15:27;;;;;;;12.93;4.35;;;7.80;99.90;;;;;;5012184;28;20515;-84
2023/04/12 02:17:53;;;;;;;13.07;3.43;;;7.80;99.90;;;;;;5011607;28;20052;-84
2023/04/12 02:20:20;;;;;;;12.97;3.80;;;7.80;99.90;;;;;;5025461;28;20022;-85
2023/04/12 02:22:45;;;;;;;12.88;3.80;;;7.80;99.90;;;;;;5030517;28;20563;-84
2023/04/12 02:25:11;;;;;;;11.20;3.58;;;7.70;99.90;;;;;;5017787;28;20049;-84
2023/04/12 02:27:37;;;;;;;12.60;3.75;;;8.50;99.90;;;;;;5009774;28;20090;-85
2023/04/12 02:30:04;;;;;;;13.27;3.50;;;7.70;99.90;;;;;;5027120;28;20045;-84
2023/04/12 02:32:44;;;;;;;11.60;3.55;;;7.70;99.90;;;;;;5018044;28;20096;-85
2023/04/12 02:35:16;;;;;;;14.98;3.50;;;7.70;99.90;;;;;;5017628;28;20033;-84
2023/04/12 02:37:58;;;;;;;10.95;3.20;;;7.60;99.90;;;;;;5025202;28;20084;-84
2023/04/12 02:40:44;;;;;;;12.73;3.95;;;7.60;99.90;;;;;;5021371;28;20070;-84
2023/04/12 02:43:09;;;;;;;14.00;3.38;;;7.50;99.90;;;;;;4999239;28;20057;-84
2023/04/12 02:45:35;;;;;;;11.38;3.28;;;7.70;99.90;;;;;;5015032;28;20065;-84
2023/04/12 02:48:03;;;;;;;10.25;2.90;;;8.50;99.90;;;;;;4999661;28;20046;-84
2023/04/12 02:50:41;;;;;;;11.50;2.85;;;7.80;99.90;;;;;;5019851;28;20472;-84
2023/04/12 02:53:07;;;;;;;10.52;2.80;;;9.20;99.90;;;;;;4998175;28;20521;-84
2023/04/12 02:55:32;;;;;;;10.63;3.22;;;7.80;99.90;;;;;;5015045;28;20077;-84
2023/04/12 02:58:13;;;;;;;10.10;2.83;;;7.80;99.90;;;;;;5000134;28;20053;-84
2023/04/12 03:00:58;;;;;;;12.20;2.90;;;7.80;99.90;;;;;;5000795;28;20054;-84
2023/04/12 03:03:25;;;;;;;9.73;2.80;;;8.80;99.90;;;;;;5015281;28;20042;-84
2023/04/12 03:06:08;;;;;;;9.30;2.80;;;7.60;99.90;;;;;;5014011;28;20057;-84
2023/04/12 03:08:59;;;;;;;10.40;3.00;;;7.70;99.90;;;;;;5014715;28;20115;-84
2023/04/12 03:11:37;;;;;;;9.57;2.60;;;7.80;99.90;;;;;;4998109;28;20552;-84
2023/04/12 03:14:18;;;;;;;8.10;2.40;;;8.00;99.90;;;;;;5013384;28;20133;-84
2023/04/12 03:16:44;;;;;;;10.03;2.80;;;9.20;99.90;;;;;;5014590;28;20119;-84
2023/04/12 03:19:09;;;;;;;10.33;2.60;;;7.80;99.90;;;;;;4997682;28;20517;-84
2023/04/12 03:21:36;;;;;;;7.77;2.83;;;7.80;99.90;;;;;;5014520;28;20045;-84
2023/04/12 03:24:03;;;;;;;9.70;2.63;;;8.50;99.90;;;;;;4998618;28;20054;-84
2023/04/12 03:29:19;;;;;;;12.07;3.08;;;7.90;99.90;;;;;;4998048;28;20057;-85
2023/04/12 03:31:50;;;;;;;11.25;2.83;;;7.90;99.90;;;;;;5016065;28;20056;-84
2023/04/12 03:34:16;;;;;;;9.25;2.90;;;8.00;99.90;;;;;;4998003;28;20080;-84
2023/04/12 03:36:53;;;;;;;10.98;3.40;;;7.80;99.90;;;;;;5015247;28;20046;-84
2023/04/12 03:39:19;;;;;;;11.48;2.85;;;7.80;99.90;;;;;;4998643;28;20034;-84
2023/04/12 03:41:59;;;;;;;9.63;3.13;;;9.30;99.90;;;;;;5015632;28;20038;-84
2023/04/12 03:44:56;;;;;;;9.25;3.33;;;9.60;99.90;;;;;;5014718;28;20517;-84
2023/04/12 03:47:22;;;;;;;11.68;3.33;;;8.00;99.90;;;;;;5014487;28;20494;-84
2023/04/12 03:49:47;;;;;;;10.75;3.00;;;9.20;99.90;;;;;;5004860;28;20052;-84
2023/04/12 03:52:13;;;;;;;12.15;3.20;;;7.90;99.90;;;;;;5026240;28;20120;-84
2023/04/12 03:54:40;;;;;;;12.38;3.10;;;8.00;99.90;;;;;;5014859;28;20477;-84
2023/04/12 03:57:06;;;;;;;12.18;3.65;;;7.80;99.90;;;;;;5020423;28;20042;-84
2023/04/12 03:59:31;;;;;;;9.27;2.95;;;7.90;99.90;;;;;;5026035;28;20048;-84
2023/04/12 04:02:01;;;;;;;10.43;3.08;;;7.90;99.90;;;;;;5002361;28;20084;-84
2023/04/12 04:04:27;;;;;;;12.15;3.15;;;7.90;99.90;;;;;;5015473;28;20096;-84
2023/04/12 04:06:53;;;;;;;9.20;2.78;;;7.90;99.90;;;;;;4997412;28;20448;-84
2023/04/12 04:09:19;;;;;;;10.57;3.17;;;7.90;99.90;;;;;;4997124;28;20133;-84
2023/04/12 04:11:45;;;;;;;9.68;2.55;;;7.90;99.90;;;;;;5015738;28;20128;-84
2023/04/12 04:14:11;;;;;;;10.70;3.05;;;9.10;99.90;;;;;;5014336;28;20050;-84
2023/04/12 04:16:37;;;;;;;10.20;2.70;;;9.10;99.90;;;;;;4997326;28;20064;-84
2023/04/12 04:19:03;;;;;;;10.52;2.92;;;8.00;99.90;;;;;;5015375;28;20117;-84
2023/04/12 04:21:31;;;;;;;9.13;2.60;;;9.00;99.90;;;;;;5014342;28;20089;-84
2023/04/12 04:24:03;;;;;;;10.30;3.03;;;7.90;99.90;;;;;;4997192;28;20038;-84
2023/04/12 04:26:37;;;;;;;9.70;2.65;;;7.90;99.90;;;;;;4997491;28;20057;-84
2023/04/12 04:29:03;;;;;;;8.82;2.50;;;7.90;99.90;;;;;;4997567;28;20397;-84
2023/04/12 04:31:46;;;;;;;8.48;2.50;;;7.90;99.90;;;;;;4996661;28;20046;-85
2023/04/12 04:34:12;;;;;;;9.13;2.58;;;7.80;99.90;;;;;;5014969;28;20041;-84
2023/04/12 04:36:40;;;;;;;10.32;2.60;;;7.70;99.90;;;;;;5013336;28;20065;-84
2023/04/12 04:39:18;;;;;;;10.88;2.70;;;7.80;99.90;;;;;;5012216;28;20050;-84
2023/04/12 04:41:45;;;;;;;9.40;2.55;;;7.80;99.90;;;;;;4997459;28;20046;-84
2023/04/12 04:44:12;;;;;;;9.13;2.75;;;7.70;99.90;;;;;;5018032;28;20054;-84
2023/04/12 04:46:38;;;;;;;8.07;2.53;;;8.00;99.90;;;;;;5015312;28;20053;-84
2023/04/12 04:49:05;;;;;;;13.27;2.85;;;7.70;99.90;;;;;;5005041;22;20052;-85
2023/04/12 04:51:30;;;;;;;8.55;2.60;;;8.70;99.90;;;;;;5014797;28;20139;-84
2023/04/12 04:53:57;;;;;;;10.27;2.72;;;8.20;99.90;;;;;;5017622;28;20073;-84
2023/04/12 04:56:23;;;;;;;9.63;2.58;;;7.50;99.90;;;;;;4997393;28;20053;-84
2023/04/12 04:59:05;;;;;;;10.65;2.40;;;7.50;99.90;;;;;;4996617;28;20055;-84
2023/04/12 05:01:34;;;;;;;9.45;2.33;;;7.50;99.90;;;;;;4997188;28;20061;-84
2023/04/12 05:04:00;;;;;;;8.57;2.30;;;7.50;99.90;;;;;;4997375;28;20157;-84
2023/04/12 05:06:26;;;;;;;8.18;2.30;;;7.50;99.90;;;;;;4996715;28;20526;-84
2023/04/12 05:08:51;;;;;;;10.48;2.50;;;7.50;99.90;;;;;;5014853;28;20048;-84
2023/04/12 05:11:18;;;;;;;10.98;3.05;;;7.40;99.90;;;;;;5014309;28;20084;-84
2023/04/12 05:13:43;;;;;;;9.45;2.88;;;7.40;99.90;;;;;;4996491;28;20486;-84
2023/04/12 05:16:10;;;;;;;9.13;2.63;;;7.40;99.90;;;;;;4996558;28;20034;-84
2023/04/12 05:18:35;;;;;;;9.77;2.80;;;7.40;99.90;;;;;;5014441;28;20492;-84
2023/04/12 05:21:04;;;;;;;13.02;3.22;;;7.40;99.90;;;;;;5003526;28;20069;-85
2023/04/12 05:23:36;;;;;;;10.23;2.78;;;7.40;99.90;;;;;;5019241;28;20042;-84
2023/04/12 05:26:02;;;;;;;11.05;2.63;;;7.30;99.90;;;;;;4996614;28;20041;-84
2023/04/12 05:28:27;;;;;;;9.53;2.87;;;7.30;99.90;;;;;;5027200;28;20077;-84
2023/04/12 05:30:56;;;;;;;10.63;2.65;;;7.30;99.90;;;;;;5000740;28;20448;-83
2023/04/12 05:33:43;;;;;;;13.23;2.90;;;7.30;99.90;;;;;;4996535;28;20042;-85
2023/04/12 05:36:24;;;;;;;10.93;2.65;;;7.30;99.90;;;;;;5014163;28;20050;-86
2023/04/12 05:39:18;;;;;;;8.23;2.50;;;7.30;99.90;;;;;;5025022;28;20033;-86
2023/04/12 05:49:30;;;;;;;11.80;3.13;;;7.30;99.90;;;;;;5011444;28;20548;-82
2023/04/12 05:52:37;;;;;;;;;;;;;;;;;;;;;
2023/04/12 05:55:28;;;;;;;10.70;3.10;;;7.30;99.90;;;;;;5008020;28;20076;-82
2023/04/12 05:58:47;;;;;;;10.45;2.97;;;8.80;99.90;;;;;;4996391;28;20046;-82
2023/04/12 06:04:54;;;;;;;10.25;3.28;;;7.40;99.90;;;;;;4995836;28;20050;-82
2023/04/12 06:07:23;;;;;;;11.68;2.92;;;7.50;99.90;;;;;;4995981;28;20052;-82
2023/04/12 06:13:20;;;;;;;10.30;2.90;;;7.20;99.90;;;;;;5140935;23;20057;-81
2023/04/12 06:16:36;;;;;;;9.27;2.90;;;6.50;99.90;;;;;;5037456;28;20493;-82
2023/04/12 06:19:01;;;;;;;9.80;3.10;;;8.10;99.90;;;;;;5052522;28;20497;-83
2023/04/12 06:21:27;;;;;;;9.38;2.90;;;8.20;99.90;;;;;;5035274;28;20110;-81
2023/04/12 06:24:08;;;;;;;12.05;3.35;;;7.20;99.90;;;;;;5034497;28;20044;-81
2023/04/12 06:26:34;;;;;;;10.18;3.33;;;7.60;99.90;;;;;;5053233;28;20056;-81
2023/04/12 06:29:00;;;;;;;12.57;3.00;;;6.80;99.90;;;;;;5034693;28;20424;-81
2023/04/12 06:31:38;;;;;;;10.75;2.97;;;6.90;99.90;;;;;;5034539;28;20045;-81
2023/04/12 06:34:03;;;;;;;9.60;2.78;;;7.30;99.90;;;;;;5035074;28;20040;-81
2023/04/12 06:36:47;;;;;;;9.40;3.08;;;6.50;99.90;;;;;;5055488;28;20090;-81
2023/04/12 06:39:15;;;;;;;12.13;3.63;;;6.90;99.90;;;;;;5052378;28;20037;-81
2023/04/12 06:41:42;;;;;;;9.50;3.20;;;8.80;99.90;;;;;;5033220;28;20099;-81
2023/04/12 06:44:26;;;;;;;8.23;3.00;;;8.20;99.90;;;;;;5024560;28;20058;-81
2023/04/12 06:46:52;;;;;;;;;;;8.50;99.90;;;;;;5026404;28;20044;-81
2023/04/12 06:49:33;;;;;;;12.07;3.10;;;6.90;99.90;;;;;;5026271;28;20023;-82
2023/04/12 06:51:58;;;;;;;9.67;3.10;;;8.50;99.90;;;;;;5021650;28;20048;-83
2023/04/12 06:54:42;;;;;;;7.95;2.80;;;8.20;99.90;;;;;;5022700;28;20090;-82
2023/04/12 06:57:10;;;;;;;;;;;8.10;99.90;;;;;;5043807;28;20037;-83
2023/04/12 06:59:50;;;;;;;9.93;3.28;;;8.30;99.90;;;;;;5044163;28;19943;-83
2023/04/12 07:02:16;;;;;;;10.30;3.47;;;7.10;99.90;;;;;;5034406;28;20040;-83
2023/04/12 07:04:59;;;;;;;10.87;3.07;;;7.10;99.90;;;;;;5029334;28;20063;-83
2023/04/12 07:07:25;;;;;;;8.75;3.20;;;8.60;99.90;;;;;;5028137;28;20075;-83
2023/04/12 07:09:51;;;;;;;11.40;3.30;;;8.10;99.90;;;;;;5029163;28;20465;-82
2023/04/12 07:12:20;;;;;;;12.27;3.40;;;7.10;99.90;;;;;;4999970;28;20090;-83
2023/04/12 07:14:46;;;;;;;11.45;4.22;;;8.20;99.90;;;;;;5018809;28;20049;-82
2023/04/12 07:17:12;;;;;;;11.43;3.60;;;8.30;99.90;;;;;;5007975;28;20037;-81
2023/04/12 07:19:38;;;;;;;13.83;3.87;;;7.00;99.90;;;;;;5034175;28;20429;-81
2023/04/12 07:22:19;;;;;;;11.53;4.30;;;8.30;99.90;;;;;;5017624;28;20504;-81
2023/04/12 07:24:45;;;;;;;9.23;3.73;;;8.50;99.90;;;;;;5017737;28;20052;-81
2023/04/12 07:27:32;;;;;;;11.17;3.80;;;8.00;99.90;;;;;;5017322;28;20400;-81
2023/04/12 07:29:58;;;;;;;11.02;4.10;;;7.40;99.90;;;;;;5017705;28;20132;-81
2023/04/12 07:32:24;;;;;;;11.63;3.80;;;7.10;99.90;;;;;;5057924;22;20112;-81
2023/04/12 07:35:15;;;;;;;11.02;3.88;;;7.00;99.90;;;;;;5033757;28;20104;-81
2023/04/12 07:38:03;;;;;;;11.98;4.45;;;7.30;99.90;;;;;;5035627;28;20045;-81
2023/04/12 07:41:19;;;;;;;9.23;3.33;;;6.80;99.90;;;;;;5014985;28;20042;-81
2023/04/12 07:43:45;;;;;;;9.82;4.20;;;7.30;99.90;;;;;;5018741;28;20045;-81
2023/04/12 07:46:23;;;;;;;11.97;4.23;;;7.00;99.90;;;;;;5052172;23;20499;-81
2023/04/12 07:49:05;;;;;;;10.83;4.13;;;6.90;99.90;;;;;;4955274;28;20043;-81
2023/04/12 07:51:43;;;;;;;12.73;4.60;;;8.70;99.90;;;;;;5011638;22;20108;-81
2023/04/12 07:54:34;;;;;;;14.20;4.72;;;7.20;99.90;;;;;;5005239;28;20091;-82
2023/04/12 07:57:22;;;;;;;10.40;4.50;;;7.20;99.90;;;;;;4997069;28;20136;-82
2023/04/12 07:59:57;;;;;;;12.47;4.80;;;6.50;99.90;;;;;;4997892;28;20038;-81
2023/04/12 08:02:24;;;;;;;13.35;4.95;;;6.90;99.90;;;;;;4997475;28;20046;-82
2023/04/12 08:05:06;;;;;;;13.53;5.00;;;7.20;99.90;;;;;;5015104;28;20091;-82
2023/04/12 08:07:32;;;;;;;12.70;4.90;;;7.20;99.90;;;;;;4985230;28;20085;-82
2023/04/12 08:10:03;;;;;;;12.85;5.45;;;6.30;99.90;;;;;;4997093;28;20066;-82
2023/04/12 08:16:46;;;;;;;14.07;6.13;;;6.60;99.90;;;;;;5002834;28;20037;-82
2023/04/12 08:19:12;;;;;;;25.90;16.93;;;7.20;99.90;;;;;;4991412;28;20417;-83
2023/04/12 08:21:53;;;;;;;12.85;4.90;;;7.00;99.90;;;;;;4991931;28;20050;-84
2023/04/12 08:24:31;;;;;;;14.75;7.95;;;8.60;99.90;;;;;;5007182;28;20038;-81
2023/04/12 08:27:03;;;;;;;14.23;6.17;;;8.50;99.90;;;;;;4997675;28;20131;-81
2023/04/12 08:29:29;;;;;;;14.83;6.67;;;7.10;99.90;;;;;;4995892;28;20094;-79
2023/04/12 08:31:55;;;;;;;10.87;5.47;;;7.60;99.90;;;;;;5005883;28;20041;-80
2023/04/12 08:34:21;;;;;;;8.10;3.35;;;7.40;99.90;;;;;;5013330;28;20371;-80
2023/04/12 08:36:46;;;;;;;9.82;3.72;;;7.30;99.90;;;;;;5011944;28;20115;-80
2023/04/12 08:39:12;;;;;;;9.27;3.22;;;7.40;99.90;;;;;;5013066;28;20049;-80
2023/04/12 08:41:38;;;;;;;9.07;3.28;;;7.40;99.90;;;;;;5013259;28;20042;-80
2023/04/12 08:44:04;;;;;;;9.82;4.18;;;7.50;99.90;;;;;;5012215;28;20466;-80
2023/04/12 08:46:30;;;;;;;9.57;3.90;;;7.60;99.90;;;;;;5012798;28;20402;-81
2023/04/12 08:48:57;;;;;;;9.60;4.00;;;7.60;99.90;;;;;;5001253;28;20076;-80
2023/04/12 08:51:22;;;;;;;12.45;4.38;;;7.60;99.90;;;;;;4976536;28;20058;-80
2023/04/12 08:53:49;;;;;;;11.25;4.40;;;7.60;99.90;;;;;;4976884;28;20042;-80
2023/04/12 08:56:37;;;;;;;11.98;5.40;;;7.60;99.90;;;;;;5012164;28;20396;-81
2023/04/12 08:59:03;;;;;;;13.03;5.37;;;7.60;99.90;;;;;;4999407;28;20045;-80
2023/04/12 09:01:32;;;;;;;13.55;5.47;;;7.40;99.90;;;;;;4999111;28;20482;-80
2023/04/12 09:03:58;;;;;;;9.13;4.15;;;7.40;99.90;;;;;;4986646;28;20046;-80
2023/04/12 09:06:23;;;;;;;12.93;4.90;;;7.70;99.90;;;;;;4986034;28;20053;-80
2023/04/12 09:09:17;;;;;;;11.07;4.72;;;7.70;99.90;;;;;;4997779;28;20129;-80
2023/04/12 09:11:43;;;;;;;9.68;4.45;;;8.50;99.90;;;;;;5011866;28;20800;-80
2023/04/12 09:14:22;;;;;;;12.52;5.40;;;8.50;99.90;;;;;;5011961;28;20103;-80
2023/04/12 09:16:48;;;;;;;13.32;6.50;;;7.70;99.90;;;;;;5012608;28;20099;-80
2023/04/12 09:19:14;;;;;;;15.00;7.05;;;7.70;99.90;;;;;;5012811;28;20041;-80
2023/04/12 09:21:54;;;;;;;13.35;6.82;;;7.70;99.90;;;;;;5013536;28;20113;-82
2023/04/12 09:24:23;;;;;;;13.63;6.85;;;7.80;99.90;;;;;;5012590;28;20107;-83
2023/04/12 09:27:00;;;;;;;14.52;6.63;;;7.80;99.90;;;;;;5011606;28;20457;-82
2023/04/12 09:29:28;;;;;;;11.80;6.53;;;7.80;99.90;;;;;;5014091;28;20121;-82
2023/04/12 09:32:00;;;;;;;12.90;6.40;;;9.00;99.90;;;;;;5013451;28;20050;-80
2023/04/12 09:34:26;;;;;;;14.55;7.32;;;7.90;99.90;;;;;;5013194;28;20132;-81
2023/04/12 09:36:52;;;;;;;13.75;7.60;;;8.00;99.90;;;;;;5011791;28;20069;-80
2023/04/12 09:39:18;;;;;;;15.27;7.95;;;8.00;99.90;;;;;;5012236;28;20108;-81
2023/04/12 09:41:44;;;;;;;15.45;8.55;;;8.00;99.90;;;;;;5012490;28;20485;-80
2023/04/12 09:44:29;;;;;;;12.68;7.13;;;8.10;99.90;;;;;;5010938;28;20042;-80
2023/04/12 09:46:55;;;;;;;13.48;8.10;;;8.10;99.90;;;;;;4997768;28;20088;-80
2023/04/12 09:49:37;;;;;;;14.68;8.43;;;8.00;99.90;;;;;;4995573;28;20050;-80
2023/04/12 09:52:03;;;;;;;17.02;8.23;;;8.00;99.90;;;;;;5011724;28;20049;-80
2023/04/12 09:54:30;;;;;;;14.48;8.50;;;8.10;99.90;;;;;;4996373;28;20050;-80
2023/04/12 09:56:56;;;;;;;17.30;9.30;;;8.10;99.90;;;;;;5012741;28;20052;-80
2023/04/12 09:59:27;;;;;;;16.95;8.88;;;8.10;99.90;;;;;;5013130;28;20037;-80
2023/04/12 10:01:53;;;;;;;14.43;8.77;;;8.20;99.90;;;;;;4996532;28;20053;-80
2023/04/12 10:04:19;;;;;;;18.17;11.15;;;8.20;99.90;;;;;;5012669;28;20050;-84
2023/04/12 10:07:19;;;;;;;17.92;9.60;;;8.20;99.90;;;;;;4997566;28;20046;-84
2023/04/12 10:09:45;;;;;;;17.63;9.90;;;9.00;99.90;;;;;;5012286;28;20050;-81
2023/04/12 10:12:11;;;;;;;15.13;9.27;;;8.40;99.90;;;;;;5011206;28;20046;-80
2023/04/12 10:14:37;;;;;;;14.70;9.10;;;8.80;99.90;;;;;;5015586;28;20413;-80
2023/04/12 10:17:04;;;;;;;16.55;9.95;;;8.60;99.90;;;;;;5010919;28;20143;-80
2023/04/12 10:19:32;;;;;;;15.05;9.05;;;8.80;99.90;;;;;;5011941;28;20425;-80
2023/04/12 10:21:59;;;;;;;14.52;8.43;;;8.80;99.90;;;;;;5013045;28;20050;-80
2023/04/12 10:24:26;;;;;;;15.63;8.70;;;8.90;99.90;;;;;;5013326;28;20441;-80
2023/04/12 10:26:59;;;;;;;13.52;8.52;;;9.00;99.90;;;;;;5011624;28;20088;-80
2023/04/12 10:29:27;;;;;;;15.23;8.80;;;9.10;99.90;;;;;;5002683;28;20137;-81
2023/04/12 10:31:54;;;;;;;14.82;8.57;;;9.20;99.90;;;;;;5012993;28;20050;-82
2023/04/12 10:34:29;;;;;;;17.40;9.43;;;9.40;99.90;;;;;;4995247;28;20045;-82
2023/04/12 10:37:00;;;;;;;14.63;8.75;;;9.70;99.90;;;;;;5011747;28;20074;-83
2023/04/12 10:39:51;;;;;;;15.85;8.30;;;10.00;99.90;;;;;;5012794;28;20042;-82
2023/04/12 10:42:25;;;;;;;15.43;8.30;;;10.20;99.90;;;;;;4998534;28;20046;-82
2023/04/12 10:44:55;;;;;;;13.02;7.28;;;10.30;99.90;;;;;;4998576;28;20478;-82
2023/04/12 10:47:53;;;;;;;13.48;7.28;;;10.40;99.90;;;;;;5017170;28;20046;-82
2023/04/12 10:50:20;;;;;;;13.55;6.78;;;10.50;99.90;;;;;;5015581;28;20057;-81
2023/04/12 10:53:17;;;;;;;16.20;7.28;;;10.60;99.90;;;;;;4998963;28;20060;-81
2023/04/12 10:55:44;;;;;;;13.38;7.40;;;10.60;99.90;;;;;;4999172;28;20478;-80
2023/04/12 10:58:10;;;;;;;12.30;6.82;;;10.70;99.90;;;;;;4997967;28;20163;-81
2023/04/12 11:00:55;;;;;;;12.68;6.68;;;10.80;99.90;;;;;;5015845;28;20045;-80
2023/04/12 11:03:21;;;;;;;12.27;6.22;;;11.20;99.90;;;;;;5013791;28;20499;-80
2023/04/12 11:05:57;;;;;;;15.77;6.57;;;11.10;99.90;;;;;;5015757;28;20096;-81
2023/04/12 11:08:23;;;;;;;13.30;6.07;;;11.20;99.90;;;;;;5014625;28;20504;-80
2023/04/12 11:10:49;;;;;;;12.77;5.57;;;11.30;99.90;;;;;;4998556;28;20048;-79
2023/04/12 11:13:15;;;;;;;11.38;5.30;;;11.30;99.90;;;;;;4997461;28;20045;-80
2023/04/12 11:15:41;;;;;;;11.77;5.35;;;11.20;99.90;;;;;;5000249;28;20050;-80
2023/04/12 11:18:07;;;;;;;11.93;5.68;;;11.10;99.90;;;;;;4997286;28;20048;-80
2023/04/12 11:20:33;;;;;;;12.15;5.80;;;11.10;99.90;;;;;;4997949;28;20433;-80
2023/04/12 11:22:59;;;;;;;11.27;5.85;;;11.10;99.90;;;;;;4999213;28;20065;-80
2023/04/12 11:25:25;;;;;;;15.60;5.40;;;11.50;99.90;;;;;;5015077;28;20129;-80
2023/04/12 11:27:53;;;;;;;13.93;5.43;;;11.20;99.90;;;;;;5015900;28;20557;-80
2023/04/12 11:30:19;;;;;;;12.40;5.63;;;11.50;99.90;;;;;;4997637;28;20084;-80
2023/04/12 11:32:46;;;;;;;14.50;5.60;;;11.80;99.90;;;;;;4987795;28;20042;-80
2023/04/12 11:35:14;;;;;;;12.27;5.07;;;11.90;99.90;;;;;;5009416;28;20052;-80
2023/04/12 11:37:40;;;;;;;12.48;4.63;;;12.00;99.90;;;;;;4999573;28;20512;-80
2023/04/12 11:40:06;;;;;;;11.25;4.53;;;12.10;99.90;;;;;;4996288;28;20073;-79
2023/04/12 11:42:32;;;;;;;12.98;4.72;;;12.20;99.90;;;;;;5015144;28;20113;-80
2023/04/12 11:44:58;;;;;;;13.55;4.82;;;12.00;99.90;;;;;;4997248;28;20081;-80
2023/04/12 11:47:25;;;;;;;13.75;4.13;;;12.20;99.90;;;;;;5014493;28;20037;-79
2023/04/12 11:49:56;;;;;;;13.25;4.45;;;12.50;99.90;;;;;;5013848;28;20057;-79
2023/04/12 11:52:31;;;;;;;12.55;4.32;;;13.20;99.90;;;;;;5012228;28;20080;-80
2023/04/12 11:55:00;;;;;;;13.30;4.07;;;13.20;99.90;;;;;;5012933;28;20082;-80
2023/04/12 11:57:27;;;;;;;17.38;6.55;;;13.10;99.90;;;;;;5013229;28;20092;-81
2023/04/12 11:59:56;;;;;;;24.50;12.48;;;13.10;99.90;;;;;;5009655;28;20038;-82
2023/04/12 12:02:25;;;;;;;12.65;3.95;;;13.80;99.90;;;;;;5019652;22;20046;-80
2023/04/12 12:04:50;;;;;;;14.07;4.93;;;13.50;99.90;;;;;;5004066;28;20078;-80
2023/04/12 12:07:17;;;;;;;12.65;4.45;;;12.80;99.90;;;;;;4992433;28;20081;-81
2023/04/12 12:09:44;;;;;;;13.38;4.53;;;12.80;99.90;;;;;;5015099;28;20041;-81
2023/04/12 12:12:12;;;;;;;14.13;5.85;;;12.70;99.90;;;;;;4997113;28;20084;-80
2023/04/12 12:14:37;;;;;;;15.23;5.35;;;12.80;99.90;;;;;;4998158;28;20058;-80
2023/04/12 12:17:14;;;;;;;24.15;16.65;;;13.00;99.90;;;;;;4997058;28;20050;-80
2023/04/12 12:19:42;;;;;;;14.57;6.97;;;12.70;99.90;;;;;;5014664;28;20038;-81
2023/04/12 12:22:20;;;;;;;10.82;3.95;;;12.60;99.90;;;;;;5000945;28;20092;-80
2023/04/12 12:24:56;;;;;;;13.65;3.50;;;12.60;99.90;;;;;;5015898;28;20034;-80
2023/04/12 12:27:29;;;;;;;10.73;3.58;;;12.80;99.90;;;;;;5015344;28;20081;-79
2023/04/12 12:30:00;;;;;;;11.68;4.15;;;12.80;99.90;;;;;;5014398;28;20088;-81
2023/04/12 12:32:33;;;;;;;11.52;4.25;;;13.10;99.90;;;;;;5009775;28;20112;-81
2023/04/12 12:35:00;;;;;;;16.50;7.63;;;13.90;99.90;;;;;;4977489;28;20495;-80
2023/04/12 12:37:27;;;;;;;11.98;3.72;;;13.20;99.90;;;;;;4995160;28;20046;-80
2023/04/12 12:40:12;;;;;;;12.18;3.97;;;13.70;99.90;;;;;;4995891;28;20122;-81
2023/04/12 12:42:58;;;;;;;11.48;3.42;;;13.60;99.90;;;;;;5000021;28;20047;-80
2023/04/12 12:45:26;;;;;;;19.45;11.65;;;15.10;99.90;;;;;;4996281;28;20046;-81
2023/04/12 12:47:52;;;;;;;11.90;3.67;;;14.10;99.90;;;;;;4977466;28;20042;-80
2023/04/12 12:50:23;;;;;;;13.77;5.07;;;14.00;99.90;;;;;;4995723;28;20463;-81
2023/04/12 12:52:48;;;;;;;11.45;2.80;;;13.80;99.90;;;;;;4995154;28;20053;-81
2023/04/12 12:55:15;;;;;;;18.20;9.43;;;14.00;99.90;;;;;;4977188;28;20149;-81
2023/04/12 12:57:42;;;;;;;17.42;10.43;;;14.10;99.90;;;;;;4979150;28;20054;-84
2023/04/12 13:00:09;;;;;;;19.23;9.43;;;13.90;99.90;;;;;;4977391;28;20060;-82
2023/04/12 13:02:36;;;;;;;15.48;6.13;;;13.80;99.90;;;;;;4976960;28;20047;-83
2023/04/12 13:05:06;;;;;;;14.93;3.55;;;13.50;99.90;;;;;;4975073;28;20057;-85
2023/04/12 13:07:34;;;;;;;14.70;3.33;;;13.20;99.90;;;;;;4976876;28;20042;-84
2023/04/12 13:10:00;;;;;;;13.40;3.22;;;13.30;99.90;;;;;;4976465;28;20137;-85
2023/04/12 13:12:26;;;;;;;22.65;13.30;;;13.20;99.90;;;;;;4976113;28;20129;-85
2023/04/12 13:25:50;;;;;;;28.63;18.42;;;12.50;99.90;;;;;;5536094;23;21103;-85
2023/04/12 13:28:16;;;;;;;30.13;20.17;;;13.90;99.90;;;;;;5012477;28;20506;-85
2023/04/12 13:30:44;;;;;;;22.52;13.20;;;13.30;99.90;;;;;;4996466;28;20379;-85
2023/04/12 13:38:24;;;;;;;13.30;3.58;;;12.40;99.90;;;;;;5219906;22;20061;-85
2023/04/12 13:40:52;;;;;;;12.13;3.80;;;12.20;99.90;;;;;;5012750;28;20042;-86
2023/04/12 13:43:18;;;;;;;11.57;2.90;;;12.00;99.90;;;;;;5011896;28;20042;-85
2023/04/12 13:45:56;;;;;;;10.73;3.30;;;12.60;99.90;;;;;;5012654;28;20046;-85
2023/04/12 13:48:28;;;;;;;20.88;8.82;;;12.90;99.90;;;;;;5013901;28;20121;-85